sensor_id;sensor_type;location;lat;lon;timestamp;P1;durP1;ratioP1;P2;durP2;ratioP2
13469;SDS011;6807;48.682;9.032;2022-10-31T00:04:10;8.93;;;5.18;;
13469;SDS011;6807;48.682;9.032;2022-10-31T00:06:38;8.68;;;4.97;;
13469;SDS011;6807;48.682;9.032;2022-10-31T00:15:03;7.78;;;4.93;;
13469;SDS011;6807;48.682;9.032;2022-10-31T00:17:30;9.48;;;5.38;;
13469;SDS011;6807;48.682;9.032;2022-10-31T00:19:57;11.43;;;5.43;;
13469;SDS011;6807;48.682;9.032;2022-10-31T00:22:26;7.50;;;4.45;;
13469;SDS011;6807;48.682;9.032;2022-10-31T00:24:57;8.32;;;5.72;;
13469;SDS011;6807;48.682;9.032;2022-10-31T00:27:23;12.23;;;4.72;;
13469;SDS011;6807;48.682;9.032;2022-10-31T00:29:50;8.68;;;4.63;;
13469;SDS011;6807;48.682;9.032;2022-10-31T00:32:17;8.55;;;4.57;;
13469;SDS011;6807;48.682;9.032;2022-10-31T00:34:51;10.48;;;5.25;;
13469;SDS011;6807;48.682;9.032;2022-10-31T00:37:18;8.32;;;4.50;;
13469;SDS011;6807;48.682;9.032;2022-10-31T00:39:46;7.15;;;4.75;;
13469;SDS011;6807;48.682;9.032;2022-10-31T00:42:14;10.30;;;4.50;;
13469;SDS011;6807;48.682;9.032;2022-10-31T00:44:57;6.68;;;4.80;;
13469;SDS011;6807;48.682;9.032;2022-10-31T00:47:24;9.48;;;4.57;;
13469;SDS011;6807;48.682;9.032;2022-10-31T00:49:53;10.15;;;4.82;;
13469;SDS011;6807;48.682;9.032;2022-10-31T00:55:23;11.25;;;4.60;;
13469;SDS011;6807;48.682;9.032;2022-10-31T00:57:50;9.27;;;5.35;;
13469;SDS011;6807;48.682;9.032;2022-10-31T01:00:17;11.30;;;4.80;;
13469;SDS011;6807;48.682;9.032;2022-10-31T01:02:43;7.75;;;4.63;;
13469;SDS011;6807;48.682;9.032;2022-10-31T01:05:10;9.05;;;4.70;;
13469;SDS011;6807;48.682;9.032;2022-10-31T01:07:37;8.15;;;4.90;;
13469;SDS011;6807;48.682;9.032;2022-10-31T01:10:06;9.23;;;5.10;;
13469;SDS011;6807;48.682;9.032;2022-10-31T01:12:37;8.20;;;5.28;;
13469;SDS011;6807;48.682;9.032;2022-10-31T01:15:04;10.95;;;5.07;;
13469;SDS011;6807;48.682;9.032;2022-10-31T01:17:32;12.23;;;5.22;;
13469;SDS011;6807;48.682;9.032;2022-10-31T01:19:59;7.32;;;5.53;;
13469;SDS011;6807;48.682;9.032;2022-10-31T01:22:26;9.85;;;5.32;;
13469;SDS011;6807;48.682;9.032;2022-10-31T01:24:58;7.68;;;5.25;;
13469;SDS011;6807;48.682;9.032;2022-10-31T01:27:26;6.68;;;5.15;;
13469;SDS011;6807;48.682;9.032;2022-10-31T01:29:55;10.35;;;5.43;;
13469;SDS011;6807;48.682;9.032;2022-10-31T01:32:21;8.10;;;5.50;;
13469;SDS011;6807;48.682;9.032;2022-10-31T01:34:48;8.85;;;5.18;;
13469;SDS011;6807;48.682;9.032;2022-10-31T01:37:15;7.10;;;5.18;;
13469;SDS011;6807;48.682;9.032;2022-10-31T01:39:42;7.32;;;5.15;;
13469;SDS011;6807;48.682;9.032;2022-10-31T01:42:09;11.95;;;5.28;;
13469;SDS011;6807;48.682;9.032;2022-10-31T01:44:49;10.57;;;5.75;;
13469;SDS011;6807;48.682;9.032;2022-10-31T01:47:21;11.25;;;6.30;;
13469;SDS011;6807;48.682;9.032;2022-10-31T01:50:15;9.52;;;4.85;;
13469;SDS011;6807;48.682;9.032;2022-10-31T01:52:53;13.65;;;5.57;;
13469;SDS011;6807;48.682;9.032;2022-10-31T01:55:22;10.93;;;5.47;;
13469;SDS011;6807;48.682;9.032;2022-10-31T01:57:53;9.95;;;5.50;;
13469;SDS011;6807;48.682;9.032;2022-10-31T02:00:23;10.00;;;5.35;;
13469;SDS011;6807;48.682;9.032;2022-10-31T02:02:52;7.90;;;5.03;;
13469;SDS011;6807;48.682;9.032;2022-10-31T02:05:22;9.15;;;5.05;;
13469;SDS011;6807;48.682;9.032;2022-10-31T02:07:55;10.52;;;5.45;;
13469;SDS011;6807;48.682;9.032;2022-10-31T02:10:24;10.02;;;5.57;;
13469;SDS011;6807;48.682;9.032;2022-10-31T02:12:51;11.02;;;5.18;;
13469;SDS011;6807;48.682;9.032;2022-10-31T02:15:23;9.05;;;5.03;;
13469;SDS011;6807;48.682;9.032;2022-10-31T02:18:03;9.10;;;4.72;;
13469;SDS011;6807;48.682;9.032;2022-10-31T02:20:32;8.40;;;4.70;;
13469;SDS011;6807;48.682;9.032;2022-10-31T02:23:13;7.50;;;5.15;;
13469;SDS011;6807;48.682;9.032;2022-10-31T02:26:16;13.40;;;5.18;;
13469;SDS011;6807;48.682;9.032;2022-10-31T02:32:02;11.23;;;5.22;;
13469;SDS011;6807;48.682;9.032;2022-10-31T02:34:36;10.85;;;5.43;;
13469;SDS011;6807;48.682;9.032;2022-10-31T02:37:08;8.18;;;5.10;;
13469;SDS011;6807;48.682;9.032;2022-10-31T02:39:39;9.77;;;5.30;;
13469;SDS011;6807;48.682;9.032;2022-10-31T02:42:14;9.40;;;5.07;;
13469;SDS011;6807;48.682;9.032;2022-10-31T02:44:47;11.05;;;5.15;;
13469;SDS011;6807;48.682;9.032;2022-10-31T02:47:18;9.48;;;4.93;;
13469;SDS011;6807;48.682;9.032;2022-10-31T02:52:26;10.23;;;4.40;;
13469;SDS011;6807;48.682;9.032;2022-10-31T02:54:54;7.80;;;4.90;;
13469;SDS011;6807;48.682;9.032;2022-10-31T02:57:27;7.68;;;5.20;;
13469;SDS011;6807;48.682;9.032;2022-10-31T02:59:57;8.15;;;4.90;;
13469;SDS011;6807;48.682;9.032;2022-10-31T03:02:35;15.30;;;4.82;;
13469;SDS011;6807;48.682;9.032;2022-10-31T03:05:14;11.40;;;4.93;;
13469;SDS011;6807;48.682;9.032;2022-10-31T03:07:59;9.00;;;4.97;;
13469;SDS011;6807;48.682;9.032;2022-10-31T03:10:35;9.95;;;5.43;;
13469;SDS011;6807;48.682;9.032;2022-10-31T03:13:06;14.63;;;4.68;;
13469;SDS011;6807;48.682;9.032;2022-10-31T03:15:37;9.50;;;5.13;;
13469;SDS011;6807;48.682;9.032;2022-10-31T03:18:09;7.53;;;4.82;;
13469;SDS011;6807;48.682;9.032;2022-10-31T03:20:42;8.90;;;4.80;;
13469;SDS011;6807;48.682;9.032;2022-10-31T03:23:13;9.57;;;6.03;;
13469;SDS011;6807;48.682;9.032;2022-10-31T03:25:42;10.00;;;5.45;;
13469;SDS011;6807;48.682;9.032;2022-10-31T03:28:10;9.30;;;4.95;;
13469;SDS011;6807;48.682;9.032;2022-10-31T03:30:41;10.65;;;5.18;;
13469;SDS011;6807;48.682;9.032;2022-10-31T03:33:15;5.57;;;4.57;;
13469;SDS011;6807;48.682;9.032;2022-10-31T03:35:50;8.50;;;5.00;;
13469;SDS011;6807;48.682;9.032;2022-10-31T03:38:19;8.05;;;5.03;;
13469;SDS011;6807;48.682;9.032;2022-10-31T03:40:47;8.18;;;4.90;;
13469;SDS011;6807;48.682;9.032;2022-10-31T03:43:18;9.52;;;5.50;;
13469;SDS011;6807;48.682;9.032;2022-10-31T03:45:51;6.82;;;5.03;;
13469;SDS011;6807;48.682;9.032;2022-10-31T03:48:20;8.55;;;4.95;;
13469;SDS011;6807;48.682;9.032;2022-10-31T03:50:49;7.93;;;5.70;;
13469;SDS011;6807;48.682;9.032;2022-10-31T03:53:26;10.85;;;5.22;;
13469;SDS011;6807;48.682;9.032;2022-10-31T03:55:57;9.25;;;5.53;;
13469;SDS011;6807;48.682;9.032;2022-10-31T04:01:31;8.80;;;5.68;;
13469;SDS011;6807;48.682;9.032;2022-10-31T04:04:19;10.82;;;5.85;;
13469;SDS011;6807;48.682;9.032;2022-10-31T04:06:46;10.00;;;5.00;;
13469;SDS011;6807;48.682;9.032;2022-10-31T04:09:15;10.07;;;5.72;;
13469;SDS011;6807;48.682;9.032;2022-10-31T04:11:44;6.80;;;5.03;;
13469;SDS011;6807;48.682;9.032;2022-10-31T04:14:15;8.82;;;5.70;;
13469;SDS011;6807;48.682;9.032;2022-10-31T04:16:45;7.45;;;5.38;;
13469;SDS011;6807;48.682;9.032;2022-10-31T04:19:12;7.93;;;5.50;;
13469;SDS011;6807;48.682;9.032;2022-10-31T04:21:42;10.43;;;5.10;;
13469;SDS011;6807;48.682;9.032;2022-10-31T04:24:20;10.68;;;5.40;;
13469;SDS011;6807;48.682;9.032;2022-10-31T04:26:47;6.63;;;4.47;;
13469;SDS011;6807;48.682;9.032;2022-10-31T04:29:14;9.60;;;5.25;;
13469;SDS011;6807;48.682;9.032;2022-10-31T04:31:41;10.00;;;5.30;;
13469;SDS011;6807;48.682;9.032;2022-10-31T04:34:09;8.32;;;5.20;;
13469;SDS011;6807;48.682;9.032;2022-10-31T04:36:36;14.20;;;6.22;;
13469;SDS011;6807;48.682;9.032;2022-10-31T04:39:04;10.48;;;5.25;;
13469;SDS011;6807;48.682;9.032;2022-10-31T04:41:31;8.90;;;5.82;;
13469;SDS011;6807;48.682;9.032;2022-10-31T04:44:00;9.82;;;5.80;;
13469;SDS011;6807;48.682;9.032;2022-10-31T04:46:27;8.95;;;5.95;;
13469;SDS011;6807;48.682;9.032;2022-10-31T04:48:54;9.23;;;5.53;;
13469;SDS011;6807;48.682;9.032;2022-10-31T04:51:21;10.50;;;6.13;;
13469;SDS011;6807;48.682;9.032;2022-10-31T04:53:48;12.00;;;6.28;;
13469;SDS011;6807;48.682;9.032;2022-10-31T04:56:21;12.00;;;5.78;;
13469;SDS011;6807;48.682;9.032;2022-10-31T04:58:51;9.65;;;6.38;;
13469;SDS011;6807;48.682;9.032;2022-10-31T05:01:18;11.82;;;5.60;;
13469;SDS011;6807;48.682;9.032;2022-10-31T05:03:45;8.18;;;5.38;;
13469;SDS011;6807;48.682;9.032;2022-10-31T05:06:12;7.47;;;5.43;;
13469;SDS011;6807;48.682;9.032;2022-10-31T05:08:40;7.38;;;4.95;;
13469;SDS011;6807;48.682;9.032;2022-10-31T05:11:07;10.57;;;5.53;;
13469;SDS011;6807;48.682;9.032;2022-10-31T05:13:35;7.65;;;5.32;;
13469;SDS011;6807;48.682;9.032;2022-10-31T05:16:02;11.32;;;5.32;;
13469;SDS011;6807;48.682;9.032;2022-10-31T05:18:37;10.13;;;6.78;;
13469;SDS011;6807;48.682;9.032;2022-10-31T05:21:04;9.50;;;6.20;;
13469;SDS011;6807;48.682;9.032;2022-10-31T05:23:31;11.18;;;6.00;;
13469;SDS011;6807;48.682;9.032;2022-10-31T05:25:58;16.02;;;6.93;;
13469;SDS011;6807;48.682;9.032;2022-10-31T05:28:24;10.20;;;6.40;;
13469;SDS011;6807;48.682;9.032;2022-10-31T05:31:03;10.38;;;5.90;;
13469;SDS011;6807;48.682;9.032;2022-10-31T05:33:30;10.57;;;5.55;;
13469;SDS011;6807;48.682;9.032;2022-10-31T05:35:59;10.73;;;5.85;;
13469;SDS011;6807;48.682;9.032;2022-10-31T05:38:26;9.15;;;6.18;;
13469;SDS011;6807;48.682;9.032;2022-10-31T05:40:54;12.02;;;5.85;;
13469;SDS011;6807;48.682;9.032;2022-10-31T05:43:23;11.43;;;6.28;;
13469;SDS011;6807;48.682;9.032;2022-10-31T05:45:51;11.67;;;7.37;;
13469;SDS011;6807;48.682;9.032;2022-10-31T05:48:20;12.65;;;6.05;;
13469;SDS011;6807;48.682;9.032;2022-10-31T05:50:47;11.50;;;6.50;;
13469;SDS011;6807;48.682;9.032;2022-10-31T05:53:19;8.63;;;6.07;;
13469;SDS011;6807;48.682;9.032;2022-10-31T05:55:46;9.65;;;5.68;;
13469;SDS011;6807;48.682;9.032;2022-10-31T05:58:12;10.70;;;5.95;;
13469;SDS011;6807;48.682;9.032;2022-10-31T06:00:41;14.90;;;7.88;;
13469;SDS011;6807;48.682;9.032;2022-10-31T06:03:08;12.98;;;6.88;;
13469;SDS011;6807;48.682;9.032;2022-10-31T06:05:37;11.85;;;6.93;;
13469;SDS011;6807;48.682;9.032;2022-10-31T06:08:04;12.43;;;6.80;;
13469;SDS011;6807;48.682;9.032;2022-10-31T06:10:38;13.15;;;6.47;;
13469;SDS011;6807;48.682;9.032;2022-10-31T06:13:05;11.10;;;6.53;;
13469;SDS011;6807;48.682;9.032;2022-10-31T06:15:32;11.43;;;6.50;;
13469;SDS011;6807;48.682;9.032;2022-10-31T06:18:00;11.10;;;6.63;;
13469;SDS011;6807;48.682;9.032;2022-10-31T06:20:28;10.30;;;6.85;;
13469;SDS011;6807;48.682;9.032;2022-10-31T06:22:58;10.77;;;6.47;;
13469;SDS011;6807;48.682;9.032;2022-10-31T06:25:25;8.55;;;6.57;;
13469;SDS011;6807;48.682;9.032;2022-10-31T06:27:52;9.63;;;6.35;;
13469;SDS011;6807;48.682;9.032;2022-10-31T06:30:21;11.98;;;7.38;;
13469;SDS011;6807;48.682;9.032;2022-10-31T06:32:50;13.73;;;6.70;;
13469;SDS011;6807;48.682;9.032;2022-10-31T06:35:17;10.30;;;7.15;;
13469;SDS011;6807;48.682;9.032;2022-10-31T06:40:19;12.82;;;6.35;;
13469;SDS011;6807;48.682;9.032;2022-10-31T06:42:55;8.25;;;6.03;;
13469;SDS011;6807;48.682;9.032;2022-10-31T06:45:23;10.35;;;6.63;;
13469;SDS011;6807;48.682;9.032;2022-10-31T06:47:50;8.98;;;6.18;;
13469;SDS011;6807;48.682;9.032;2022-10-31T06:50:18;12.77;;;6.60;;
13469;SDS011;6807;48.682;9.032;2022-10-31T06:52:49;13.50;;;6.82;;
13469;SDS011;6807;48.682;9.032;2022-10-31T06:55:19;11.05;;;6.35;;
13469;SDS011;6807;48.682;9.032;2022-10-31T06:57:50;11.50;;;6.38;;
13469;SDS011;6807;48.682;9.032;2022-10-31T07:00:27;8.80;;;6.20;;
13469;SDS011;6807;48.682;9.032;2022-10-31T07:02:56;11.85;;;6.50;;
13469;SDS011;6807;48.682;9.032;2022-10-31T07:05:25;8.55;;;5.60;;
13469;SDS011;6807;48.682;9.032;2022-10-31T07:07:53;12.15;;;5.95;;
13469;SDS011;6807;48.682;9.032;2022-10-31T07:10:22;12.70;;;7.15;;
13469;SDS011;6807;48.682;9.032;2022-10-31T07:12:53;7.93;;;6.22;;
13469;SDS011;6807;48.682;9.032;2022-10-31T07:15:21;9.68;;;5.65;;
13469;SDS011;6807;48.682;9.032;2022-10-31T07:17:48;8.70;;;5.30;;
13469;SDS011;6807;48.682;9.032;2022-10-31T07:20:15;9.60;;;5.43;;
13469;SDS011;6807;48.682;9.032;2022-10-31T07:22:42;7.90;;;5.20;;
13469;SDS011;6807;48.682;9.032;2022-10-31T07:25:09;6.32;;;5.28;;
13469;SDS011;6807;48.682;9.032;2022-10-31T07:27:38;7.10;;;4.85;;
13469;SDS011;6807;48.682;9.032;2022-10-31T07:30:06;7.15;;;5.45;;
13469;SDS011;6807;48.682;9.032;2022-10-31T07:32:37;12.05;;;4.97;;
13469;SDS011;6807;48.682;9.032;2022-10-31T07:35:08;7.95;;;4.68;;
13469;SDS011;6807;48.682;9.032;2022-10-31T07:37:36;8.82;;;5.22;;
13469;SDS011;6807;48.682;9.032;2022-10-31T07:40:04;6.50;;;4.75;;
13469;SDS011;6807;48.682;9.032;2022-10-31T07:42:34;8.50;;;5.10;;
13469;SDS011;6807;48.682;9.032;2022-10-31T07:45:03;8.40;;;5.93;;
13469;SDS011;6807;48.682;9.032;2022-10-31T07:47:37;8.43;;;5.65;;
13469;SDS011;6807;48.682;9.032;2022-10-31T07:50:04;11.60;;;5.55;;
13469;SDS011;6807;48.682;9.032;2022-10-31T07:52:32;8.43;;;5.80;;
13469;SDS011;6807;48.682;9.032;2022-10-31T07:54:58;7.82;;;5.55;;
13469;SDS011;6807;48.682;9.032;2022-10-31T07:57:25;8.82;;;5.13;;
13469;SDS011;6807;48.682;9.032;2022-10-31T07:59:52;9.25;;;5.15;;
13469;SDS011;6807;48.682;9.032;2022-10-31T08:02:20;6.70;;;4.65;;
13469;SDS011;6807;48.682;9.032;2022-10-31T08:04:47;7.30;;;4.60;;
13469;SDS011;6807;48.682;9.032;2022-10-31T08:07:15;10.73;;;4.80;;
13469;SDS011;6807;48.682;9.032;2022-10-31T08:09:42;8.65;;;5.05;;
13469;SDS011;6807;48.682;9.032;2022-10-31T08:12:08;10.93;;;5.32;;
13469;SDS011;6807;48.682;9.032;2022-10-31T08:14:35;9.82;;;4.43;;
13469;SDS011;6807;48.682;9.032;2022-10-31T08:17:02;8.77;;;4.95;;
13469;SDS011;6807;48.682;9.032;2022-10-31T08:19:30;8.98;;;4.90;;
13469;SDS011;6807;48.682;9.032;2022-10-31T08:21:57;12.45;;;5.72;;
13469;SDS011;6807;48.682;9.032;2022-10-31T08:24:23;5.65;;;4.68;;
13469;SDS011;6807;48.682;9.032;2022-10-31T08:26:50;7.85;;;4.78;;
13469;SDS011;6807;48.682;9.032;2022-10-31T08:29:18;7.80;;;4.57;;
13469;SDS011;6807;48.682;9.032;2022-10-31T08:31:45;7.50;;;4.80;;
13469;SDS011;6807;48.682;9.032;2022-10-31T08:34:12;6.57;;;4.55;;
13469;SDS011;6807;48.682;9.032;2022-10-31T08:36:40;8.15;;;4.88;;
13469;SDS011;6807;48.682;9.032;2022-10-31T08:39:09;9.80;;;5.38;;
13469;SDS011;6807;48.682;9.032;2022-10-31T08:41:36;5.95;;;4.53;;
13469;SDS011;6807;48.682;9.032;2022-10-31T08:44:03;7.18;;;4.65;;
13469;SDS011;6807;48.682;9.032;2022-10-31T08:46:30;6.53;;;4.22;;
13469;SDS011;6807;48.682;9.032;2022-10-31T08:48:57;7.30;;;4.18;;
13469;SDS011;6807;48.682;9.032;2022-10-31T08:51:24;10.50;;;3.95;;
13469;SDS011;6807;48.682;9.032;2022-10-31T08:53:52;6.53;;;4.03;;
13469;SDS011;6807;48.682;9.032;2022-10-31T08:56:19;13.38;;;5.25;;
13469;SDS011;6807;48.682;9.032;2022-10-31T08:58:47;25.48;;;6.03;;
13469;SDS011;6807;48.682;9.032;2022-10-31T09:01:14;8.55;;;4.30;;
13469;SDS011;6807;48.682;9.032;2022-10-31T09:03:40;6.20;;;4.10;;
13469;SDS011;6807;48.682;9.032;2022-10-31T09:06:07;11.52;;;4.47;;
13469;SDS011;6807;48.682;9.032;2022-10-31T09:08:35;8.05;;;4.32;;
13469;SDS011;6807;48.682;9.032;2022-10-31T09:11:03;12.15;;;4.93;;
13469;SDS011;6807;48.682;9.032;2022-10-31T09:13:31;6.55;;;3.83;;
13469;SDS011;6807;48.682;9.032;2022-10-31T09:15:58;9.05;;;4.78;;
13469;SDS011;6807;48.682;9.032;2022-10-31T09:18:25;5.05;;;4.05;;
13469;SDS011;6807;48.682;9.032;2022-10-31T09:20:53;8.48;;;3.95;;
13469;SDS011;6807;48.682;9.032;2022-10-31T09:23:21;8.35;;;3.72;;
13469;SDS011;6807;48.682;9.032;2022-10-31T09:25:49;6.72;;;4.50;;
13469;SDS011;6807;48.682;9.032;2022-10-31T09:28:19;7.97;;;4.00;;
13469;SDS011;6807;48.682;9.032;2022-10-31T09:30:47;4.82;;;3.15;;
13469;SDS011;6807;48.682;9.032;2022-10-31T09:33:15;4.90;;;3.60;;
13469;SDS011;6807;48.682;9.032;2022-10-31T09:35:43;8.43;;;5.20;;
13469;SDS011;6807;48.682;9.032;2022-10-31T09:38:11;6.70;;;4.18;;
13469;SDS011;6807;48.682;9.032;2022-10-31T09:40:40;5.13;;;4.00;;
13469;SDS011;6807;48.682;9.032;2022-10-31T09:43:11;5.28;;;3.90;;
13469;SDS011;6807;48.682;9.032;2022-10-31T09:45:46;7.70;;;3.95;;
13469;SDS011;6807;48.682;9.032;2022-10-31T09:51:07;7.72;;;4.05;;
13469;SDS011;6807;48.682;9.032;2022-10-31T09:53:37;5.53;;;3.70;;
13469;SDS011;6807;48.682;9.032;2022-10-31T09:56:07;10.73;;;4.07;;
13469;SDS011;6807;48.682;9.032;2022-10-31T09:58:38;8.00;;;4.05;;
13469;SDS011;6807;48.682;9.032;2022-10-31T10:01:11;5.97;;;4.20;;
13469;SDS011;6807;48.682;9.032;2022-10-31T10:03:49;6.30;;;4.35;;
13469;SDS011;6807;48.682;9.032;2022-10-31T10:06:22;6.07;;;3.70;;
13469;SDS011;6807;48.682;9.032;2022-10-31T10:08:51;6.50;;;4.13;;
13469;SDS011;6807;48.682;9.032;2022-10-31T10:11:24;5.38;;;3.28;;
13469;SDS011;6807;48.682;9.032;2022-10-31T10:14:04;8.27;;;4.07;;
13469;SDS011;6807;48.682;9.032;2022-10-31T10:16:50;8.75;;;3.92;;
13469;SDS011;6807;48.682;9.032;2022-10-31T10:19:29;12.50;;;3.85;;
13469;SDS011;6807;48.682;9.032;2022-10-31T10:22:07;8.30;;;3.58;;
13469;SDS011;6807;48.682;9.032;2022-10-31T10:24:44;7.68;;;4.00;;
13469;SDS011;6807;48.682;9.032;2022-10-31T10:27:23;8.65;;;4.13;;
13469;SDS011;6807;48.682;9.032;2022-10-31T10:29:57;6.15;;;4.05;;
13469;SDS011;6807;48.682;9.032;2022-10-31T10:32:30;7.35;;;4.10;;
13469;SDS011;6807;48.682;9.032;2022-10-31T10:35:07;8.00;;;4.10;;
13469;SDS011;6807;48.682;9.032;2022-10-31T10:37:41;7.00;;;4.15;;
13469;SDS011;6807;48.682;9.032;2022-10-31T10:40:13;8.95;;;4.20;;
13469;SDS011;6807;48.682;9.032;2022-10-31T10:42:43;13.02;;;4.50;;
13469;SDS011;6807;48.682;9.032;2022-10-31T10:45:34;7.25;;;3.67;;
13469;SDS011;6807;48.682;9.032;2022-10-31T10:48:23;4.60;;;3.75;;
13469;SDS011;6807;48.682;9.032;2022-10-31T10:50:57;10.38;;;4.20;;
13469;SDS011;6807;48.682;9.032;2022-10-31T10:53:39;9.10;;;4.13;;
13469;SDS011;6807;48.682;9.032;2022-10-31T10:56:30;8.20;;;3.55;;
13469;SDS011;6807;48.682;9.032;2022-10-31T10:59:03;8.25;;;3.60;;
13469;SDS011;6807;48.682;9.032;2022-10-31T11:01:30;6.60;;;4.32;;
13469;SDS011;6807;48.682;9.032;2022-10-31T11:03:59;5.45;;;3.35;;
13469;SDS011;6807;48.682;9.032;2022-10-31T11:06:29;6.25;;;3.83;;
13469;SDS011;6807;48.682;9.032;2022-10-31T11:08:56;6.95;;;3.63;;
13469;SDS011;6807;48.682;9.032;2022-10-31T11:11:23;8.75;;;3.80;;
13469;SDS011;6807;48.682;9.032;2022-10-31T11:13:57;11.90;;;3.97;;
13469;SDS011;6807;48.682;9.032;2022-10-31T11:16:30;8.20;;;3.75;;
13469;SDS011;6807;48.682;9.032;2022-10-31T11:19:08;6.40;;;3.28;;
13469;SDS011;6807;48.682;9.032;2022-10-31T11:21:40;9.77;;;3.38;;
13469;SDS011;6807;48.682;9.032;2022-10-31T11:24:12;8.38;;;3.30;;
13469;SDS011;6807;48.682;9.032;2022-10-31T11:26:42;6.85;;;3.70;;
13469;SDS011;6807;48.682;9.032;2022-10-31T11:29:12;9.85;;;3.78;;
13469;SDS011;6807;48.682;9.032;2022-10-31T11:31:41;7.65;;;3.30;;
13469;SDS011;6807;48.682;9.032;2022-10-31T11:34:14;8.52;;;3.75;;
13469;SDS011;6807;48.682;9.032;2022-10-31T11:36:46;6.10;;;3.30;;
13469;SDS011;6807;48.682;9.032;2022-10-31T11:39:16;9.35;;;4.25;;
13469;SDS011;6807;48.682;9.032;2022-10-31T11:41:46;8.25;;;3.55;;
13469;SDS011;6807;48.682;9.032;2022-10-31T11:44:15;5.45;;;3.05;;
13469;SDS011;6807;48.682;9.032;2022-10-31T11:46:44;8.23;;;3.15;;
13469;SDS011;6807;48.682;9.032;2022-10-31T11:49:15;9.60;;;3.70;;
13469;SDS011;6807;48.682;9.032;2022-10-31T11:51:46;10.68;;;4.43;;
13469;SDS011;6807;48.682;9.032;2022-10-31T11:54:18;6.25;;;3.53;;
13469;SDS011;6807;48.682;9.032;2022-10-31T11:56:48;7.18;;;3.67;;
13469;SDS011;6807;48.682;9.032;2022-10-31T11:59:17;8.45;;;4.20;;
13469;SDS011;6807;48.682;9.032;2022-10-31T12:01:48;9.68;;;3.70;;
13469;SDS011;6807;48.682;9.032;2022-10-31T12:04:17;7.05;;;3.60;;
13469;SDS011;6807;48.682;9.032;2022-10-31T12:06:49;9.77;;;3.95;;
13469;SDS011;6807;48.682;9.032;2022-10-31T12:09:20;12.98;;;4.30;;
13469;SDS011;6807;48.682;9.032;2022-10-31T12:11:52;6.45;;;3.95;;
13469;SDS011;6807;48.682;9.032;2022-10-31T12:14:37;8.23;;;3.35;;
13469;SDS011;6807;48.682;9.032;2022-10-31T12:17:14;7.22;;;3.65;;
13469;SDS011;6807;48.682;9.032;2022-10-31T12:19:48;9.73;;;3.72;;
13469;SDS011;6807;48.682;9.032;2022-10-31T12:22:25;7.25;;;3.88;;
13469;SDS011;6807;48.682;9.032;2022-10-31T12:25:05;5.68;;;3.47;;
13469;SDS011;6807;48.682;9.032;2022-10-31T12:30:51;10.55;;;3.78;;
13469;SDS011;6807;48.682;9.032;2022-10-31T12:33:30;12.00;;;4.15;;
13469;SDS011;6807;48.682;9.032;2022-10-31T12:36:14;10.70;;;4.25;;
13469;SDS011;6807;48.682;9.032;2022-10-31T12:38:54;9.90;;;4.50;;
13469;SDS011;6807;48.682;9.032;2022-10-31T12:41:36;9.82;;;4.00;;
13469;SDS011;6807;48.682;9.032;2022-10-31T12:44:13;9.57;;;4.60;;
13469;SDS011;6807;48.682;9.032;2022-10-31T12:47:00;6.25;;;3.95;;
13469;SDS011;6807;48.682;9.032;2022-10-31T12:49:40;8.30;;;3.97;;
13469;SDS011;6807;48.682;9.032;2022-10-31T12:52:16;10.63;;;4.57;;
13469;SDS011;6807;48.682;9.032;2022-10-31T12:55:00;9.43;;;4.68;;
13469;SDS011;6807;48.682;9.032;2022-10-31T12:57:42;7.93;;;3.70;;
13469;SDS011;6807;48.682;9.032;2022-10-31T13:00:13;31.33;;;5.50;;
13469;SDS011;6807;48.682;9.032;2022-10-31T13:02:44;9.82;;;4.60;;
13469;SDS011;6807;48.682;9.032;2022-10-31T13:05:15;7.30;;;4.72;;
13469;SDS011;6807;48.682;9.032;2022-10-31T13:07:49;8.50;;;4.80;;
13469;SDS011;6807;48.682;9.032;2022-10-31T13:10:22;7.20;;;4.20;;
13469;SDS011;6807;48.682;9.032;2022-10-31T13:12:53;10.50;;;4.50;;
13469;SDS011;6807;48.682;9.032;2022-10-31T13:15:32;7.93;;;4.53;;
13469;SDS011;6807;48.682;9.032;2022-10-31T13:18:05;8.93;;;4.32;;
13469;SDS011;6807;48.682;9.032;2022-10-31T13:20:40;8.70;;;4.93;;
13469;SDS011;6807;48.682;9.032;2022-10-31T13:23:14;10.48;;;5.18;;
13469;SDS011;6807;48.682;9.032;2022-10-31T13:26:01;10.65;;;5.60;;
13469;SDS011;6807;48.682;9.032;2022-10-31T13:28:36;13.02;;;5.32;;
13469;SDS011;6807;48.682;9.032;2022-10-31T13:31:08;11.63;;;5.20;;
13469;SDS011;6807;48.682;9.032;2022-10-31T13:33:38;7.32;;;5.35;;
13469;SDS011;6807;48.682;9.032;2022-10-31T13:36:12;8.82;;;5.00;;
13469;SDS011;6807;48.682;9.032;2022-10-31T13:38:50;7.18;;;4.43;;
13469;SDS011;6807;48.682;9.032;2022-10-31T13:41:23;9.18;;;4.85;;
13469;SDS011;6807;48.682;9.032;2022-10-31T13:44:04;7.95;;;4.38;;
13469;SDS011;6807;48.682;9.032;2022-10-31T13:46:42;10.80;;;4.65;;
13469;SDS011;6807;48.682;9.032;2022-10-31T13:52:12;8.88;;;4.15;;
13469;SDS011;6807;48.682;9.032;2022-10-31T13:54:43;8.95;;;4.15;;
13469;SDS011;6807;48.682;9.032;2022-10-31T13:57:18;6.72;;;4.10;;
13469;SDS011;6807;48.682;9.032;2022-10-31T13:59:50;8.32;;;4.40;;
13469;SDS011;6807;48.682;9.032;2022-10-31T14:02:21;6.95;;;4.25;;
13469;SDS011;6807;48.682;9.032;2022-10-31T14:04:54;9.52;;;4.68;;
13469;SDS011;6807;48.682;9.032;2022-10-31T14:07:25;9.60;;;4.78;;
13469;SDS011;6807;48.682;9.032;2022-10-31T14:09:55;6.85;;;4.30;;
13469;SDS011;6807;48.682;9.032;2022-10-31T14:12:29;8.60;;;4.57;;
13469;SDS011;6807;48.682;9.032;2022-10-31T14:15:00;8.35;;;4.40;;
13469;SDS011;6807;48.682;9.032;2022-10-31T14:17:33;12.70;;;5.32;;
13469;SDS011;6807;48.682;9.032;2022-10-31T14:20:21;10.68;;;4.28;;
13469;SDS011;6807;48.682;9.032;2022-10-31T14:22:58;6.13;;;4.13;;
13469;SDS011;6807;48.682;9.032;2022-10-31T14:25:38;6.43;;;3.70;;
13469;SDS011;6807;48.682;9.032;2022-10-31T14:28:18;5.43;;;3.60;;
13469;SDS011;6807;48.682;9.032;2022-10-31T14:30:52;12.00;;;4.47;;
13469;SDS011;6807;48.682;9.032;2022-10-31T14:33:23;7.10;;;4.22;;
13469;SDS011;6807;48.682;9.032;2022-10-31T14:35:55;8.00;;;4.47;;
13469;SDS011;6807;48.682;9.032;2022-10-31T14:44:24;7.60;;;3.83;;
13469;SDS011;6807;48.682;9.032;2022-10-31T14:47:10;10.52;;;4.30;;
13469;SDS011;6807;48.682;9.032;2022-10-31T14:49:49;9.23;;;4.93;;
13469;SDS011;6807;48.682;9.032;2022-10-31T14:52:29;7.85;;;4.53;;
13469;SDS011;6807;48.682;9.032;2022-10-31T14:54:56;7.53;;;4.63;;
13469;SDS011;6807;48.682;9.032;2022-10-31T14:57:29;11.52;;;5.35;;
13469;SDS011;6807;48.682;9.032;2022-10-31T15:00:01;7.88;;;4.55;;
13469;SDS011;6807;48.682;9.032;2022-10-31T15:02:30;8.32;;;4.30;;
13469;SDS011;6807;48.682;9.032;2022-10-31T15:05:06;5.95;;;3.60;;
13469;SDS011;6807;48.682;9.032;2022-10-31T15:10:57;6.35;;;4.00;;
13469;SDS011;6807;48.682;9.032;2022-10-31T15:13:25;7.97;;;3.83;;
13469;SDS011;6807;48.682;9.032;2022-10-31T15:15:52;4.95;;;3.58;;
13469;SDS011;6807;48.682;9.032;2022-10-31T15:18:21;7.55;;;4.13;;
13469;SDS011;6807;48.682;9.032;2022-10-31T15:20:57;11.55;;;3.97;;
13469;SDS011;6807;48.682;9.032;2022-10-31T15:23:27;7.05;;;3.60;;
13469;SDS011;6807;48.682;9.032;2022-10-31T15:26:00;8.45;;;5.10;;
13469;SDS011;6807;48.682;9.032;2022-10-31T15:28:30;7.18;;;4.65;;
13469;SDS011;6807;48.682;9.032;2022-10-31T15:31:13;7.75;;;3.70;;
13469;SDS011;6807;48.682;9.032;2022-10-31T15:33:42;8.27;;;3.80;;
13469;SDS011;6807;48.682;9.032;2022-10-31T15:36:18;9.93;;;4.32;;
13469;SDS011;6807;48.682;9.032;2022-10-31T15:38:54;8.57;;;3.33;;
13469;SDS011;6807;48.682;9.032;2022-10-31T15:41:23;4.97;;;3.65;;
13469;SDS011;6807;48.682;9.032;2022-10-31T15:43:56;5.20;;;3.30;;
13469;SDS011;6807;48.682;9.032;2022-10-31T15:46:28;8.65;;;3.17;;
13469;SDS011;6807;48.682;9.032;2022-10-31T15:48:55;4.97;;;3.83;;
13469;SDS011;6807;48.682;9.032;2022-10-31T15:51:28;6.90;;;3.60;;
13469;SDS011;6807;48.682;9.032;2022-10-31T15:53:58;7.20;;;3.53;;
13469;SDS011;6807;48.682;9.032;2022-10-31T15:56:26;10.18;;;4.05;;
13469;SDS011;6807;48.682;9.032;2022-10-31T15:58:59;12.55;;;5.22;;
13469;SDS011;6807;48.682;9.032;2022-10-31T16:01:28;7.80;;;4.13;;
13469;SDS011;6807;48.682;9.032;2022-10-31T16:04:01;10.50;;;4.00;;